Sasabe, Arizona
Current Conditions -  °F | °C
As of 2:54 AM on Friday 21 Nov 2014 (Local Time) from KOLS Reporting Station
Clear Clear  
Wind Chill: 37°   Ceiling: Unl
Heat Index: 37°   Visibility: 10mi
Dew Point: 17°   Wind: 3mph
Humidity: 44%   Direction: 90°E
Pressure: 30"   Gusts: NA
Location:  31.49°N, 111.54°W
Report Text: KOLS 210954Z AUTO 09003KT 10SM CLR 03/M08 A3000 RMK AO2 SLP124 T00281083
Loading
Personal Weather Stations






























Interactive Weather Map New forecast layout! Learn more

10-Day Weather Forecast

Advertisements
Track Severe Weather on mobile